Time;durP1;ratioP1;P1;durP2;ratioP2;P2;SDS_P1;SDS_P2;PMS_P1;PMS_P2;Temp;Humidity;BMP_temperature;BMP_pressure;BME280_temperature;BME280_humidity;BME280_pressure;Samples;Min_cycle;Max_cycle;Signal;HPM_P1;HPM_P2
2023/12/22 00:01:41;;;;;;;;;;;;;;;0.05;96.25;93845.94;5113428;28;1075;-59
2023/12/22 00:04:07;;;;;;;;;;;;;;;-0.11;96.60;93841.13;5125870;28;1145;-58
2023/12/22 00:06:33;;;;;;;;;;;;;;;-0.43;96.45;93828.91;5134393;27;988;-59
2023/12/22 00:08:59;;;;;;;;;;;;;;;-0.57;96.85;93834.44;5133889;27;1975;-58
2023/12/22 00:11:25;;;;;;;;;;;;;;;-0.51;98.33;93824.28;5134024;27;1055;-59
2023/12/22 00:13:51;;;;;;;;;;;;;;;-0.40;98.52;93820.75;5134212;27;956;-58
2023/12/22 00:16:17;;;;;;;;;;;;;;;-0.16;98.32;93807.34;5134124;27;1024;-59
2023/12/22 00:18:44;;;;;;;;;;;;;;;0.11;96.96;93817.31;5133640;27;1215;-59
2023/12/22 00:21:10;;;;;;;;;;;;;;;-0.07;96.92;93816.28;5134233;27;1019;-58
2023/12/22 00:23:37;;;;;;;;;;;;;;;-0.11;96.79;93809.63;5133885;27;984;-59
2023/12/22 00:26:06;;;;;;;;;;;;;;;-0.13;98.33;93811.50;5134103;27;1121;-58
2023/12/22 00:28:32;;;;;;;;;;;;;;;-0.13;97.06;93812.38;5133817;27;1910;-59
2023/12/22 00:30:58;;;;;;;;;;;;;;;-0.18;96.66;93814.53;5134118;27;993;-59
2023/12/22 00:33:25;;;;;;;;;;;;;;;-0.34;97.52;93796.63;5132911;28;968;-58
2023/12/22 00:35:51;;;;;;;;;;;;;;;-0.20;98.21;93803.31;5133854;27;1044;-58
2023/12/22 00:38:17;;;;;;;;;;;;;;;-0.20;97.70;93792.81;5133786;27;1179;-59
2023/12/22 00:40:43;;;;;;;;;;;;;;;-0.17;97.64;93784.69;5133689;27;996;-59
2023/12/22 00:43:09;;;;;;;;;;;;;;;-0.04;97.75;93779.19;5133613;27;1133;-59
2023/12/22 00:45:35;;;;;;;;;;;;;;;-0.08;97.64;93785.69;5133984;27;1107;-59
2023/12/22 00:48:01;;;;;;;;;;;;;;;-0.15;97.95;93806.41;5137566;27;1909;-59
2023/12/22 00:50:27;;;;;;;;;;;;;;;-0.29;97.76;93796.22;5137518;27;1036;-58
2023/12/22 00:52:53;;;;;;;;;;;;;;;-0.44;99.41;93800.94;5137506;27;1051;-59
2023/12/22 00:55:19;;;;;;;;;;;;;;;-0.55;100.00;93814.13;5137646;27;1039;-59
2023/12/22 00:57:45;;;;;;;;;;;;;;;-0.72;100.00;93805.03;5137619;27;1015;-58
2023/12/22 01:00:12;;;;;;;;;;;;;;;-0.51;100.00;93805.03;5137632;27;1059;-59
2023/12/22 01:02:38;;;;;;;;;;;;;;;-0.36;99.25;93798.53;5137533;27;968;-58
2023/12/22 01:05:04;;;;;;;;;;;;;;;-0.36;99.48;93795.91;5116848;27;1251;-59
2023/12/22 01:07:30;;;;;;;;;;;;;;;-0.34;99.00;93795.75;5116924;28;1909;-59
2023/12/22 01:10:01;;;;;;;;;;;;;;;-0.33;98.94;93794.81;5116522;28;973;-59
2023/12/22 01:12:28;;;;;;;;;;;;;;;-0.42;100.00;93796.41;5116669;28;890;-59
2023/12/22 01:14:54;;;;;;;;;;;;;;;-0.41;98.89;93785.78;5116451;28;1083;-58
2023/12/22 01:17:20;;;;;;;;;;;;;;;-0.55;100.00;93769.50;5116586;28;1079;-59
2023/12/22 01:19:46;;;;;;;;;;;;;;;-0.39;99.87;93775.16;5116519;28;969;-58
2023/12/22 01:22:12;;;;;;;;;;;;;;;-0.48;100.00;93776.75;5116698;28;1143;-59
2023/12/22 01:24:40;;;;;;;;;;;;;;;-0.46;100.00;93774.81;5116257;28;988;-59
2023/12/22 01:27:07;;;;;;;;;;;;;;;-0.54;100.00;93772.00;5115354;28;1950;-59
2023/12/22 01:29:32;;;;;;;;;;;;;;;-0.26;99.64;93777.59;5116312;28;1040;-58
2023/12/22 01:31:58;;;;;;;;;;;;;;;-0.25;99.45;93777.47;5116116;28;1071;-59
2023/12/22 01:34:24;;;;;;;;;;;;;;;-0.28;99.45;93782.97;5116502;28;1015;-58
2023/12/22 01:36:50;;;;;;;;;;;;;;;-0.23;100.00;93774.69;5116038;28;1036;-58
2023/12/22 01:39:17;;;;;;;;;;;;;;;-0.12;98.90;93782.47;5116035;28;1019;-59
2023/12/22 01:41:43;;;;;;;;;;;;;;;-0.31;98.53;93775.31;5116009;28;1090;-58
2023/12/22 01:44:08;;;;;;;;;;;;;;;-0.25;98.93;93766.97;5116229;28;963;-59
2023/12/22 01:46:35;;;;;;;;;;;;;;;-0.26;99.12;93773.16;5115934;28;1249;-60
2023/12/22 01:49:02;;;;;;;;;;;;;;;-0.21;99.91;93763.09;5115995;28;1979;-59
2023/12/22 01:51:32;;;;;;;;;;;;;;;0.02;98.81;93759.47;5116329;28;1036;-58
2023/12/22 01:53:59;;;;;;;;;;;;;;;0.10;98.11;93768.34;5115634;28;1119;-58
2023/12/22 01:56:25;;;;;;;;;;;;;;;-0.17;100.00;93765.44;5115563;28;1048;-59
2023/12/22 01:58:53;;;;;;;;;;;;;;;-0.24;100.00;93776.47;5115861;28;1034;-59
2023/12/22 02:01:20;;;;;;;;;;;;;;;-0.16;100.00;93780.25;5115805;28;1003;-58
2023/12/22 02:03:48;;;;;;;;;;;;;;;-0.25;100.00;93769.59;5125135;27;1220;-58
2023/12/22 02:06:15;;;;;;;;;;;;;;;-0.02;100.00;93764.13;5136227;27;1031;-58
2023/12/22 02:08:43;;;;;;;;;;;;;;;0.08;100.00;93762.41;5136195;27;1901;-59
2023/12/22 02:11:09;;;;;;;;;;;;;;;0.14;100.00;93771.56;5136330;27;1039;-58
2023/12/22 02:13:35;;;;;;;;;;;;;;;0.12;99.80;93758.53;5136222;27;977;-59
2023/12/22 02:16:04;;;;;;;;;;;;;;;0.12;99.71;93761.16;5135936;27;1040;-58
2023/12/22 02:18:33;;;;;;;;;;;;;;;0.08;99.52;93738.75;5135905;27;1070;-59
2023/12/22 02:20:59;;;;;;;;;;;;;;;0.14;100.00;93737.38;5135705;27;1076;-58
2023/12/22 02:23:26;;;;;;;;;;;;;;;0.14;100.00;93748.72;5135784;27;1047;-59
2023/12/22 02:25:56;;;;;;;;;;;;;;;0.03;100.00;93726.97;5135943;27;989;-59
2023/12/22 02:28:23;;;;;;;;;;;;;;;0.16;100.00;93732.84;5135982;27;1909;-59
2023/12/22 02:30:52;;;;;;;;;;;;;;;-0.03;100.00;93734.41;5135599;27;1076;-58
2023/12/22 02:33:18;;;;;;;;;;;;;;;0.13;100.00;93738.34;5135623;27;1024;-59
2023/12/22 02:35:45;;;;;;;;;;;;;;;0.02;100.00;93723.53;5135432;27;1028;-59
2023/12/22 02:38:12;;;;;;;;;;;;;;;0.03;100.00;93717.28;5135759;27;1028;-59
2023/12/22 02:40:39;;;;;;;;;;;;;;;-0.04;100.00;93710.88;5135585;27;961;-59
2023/12/22 02:43:06;;;;;;;;;;;;;;;0.00;100.00;93728.09;5135717;27;1071;-59
2023/12/22 02:45:32;;;;;;;;;;;;;;;0.08;100.00;93722.97;5135512;27;951;-59
2023/12/22 02:47:58;;;;;;;;;;;;;;;0.30;100.00;93729.00;5135110;27;1980;-59
2023/12/22 02:50:24;;;;;;;;;;;;;;;0.21;100.00;93716.66;5135415;27;965;-59
2023/12/22 02:52:50;;;;;;;;;;;;;;;0.42;100.00;93711.31;5135136;27;1025;-58
2023/12/22 02:55:16;;;;;;;;;;;;;;;0.59;99.20;93713.31;5135315;27;1103;-59
2023/12/22 02:57:42;;;;;;;;;;;;;;;0.48;99.65;93695.84;5135190;27;1047;-59
2023/12/22 03:00:08;;;;;;;;;;;;;;;0.41;99.70;93684.19;5135331;27;1051;-59
2023/12/22 03:02:34;;;;;;;;;;;;;;;0.42;100.00;93685.00;5135036;27;2147;-58
2023/12/22 03:05:00;;;;;;;;;;;;;;;0.24;100.00;93676.97;5114981;27;1184;-59
2023/12/22 03:07:26;;;;;;;;;;;;;;;0.18;100.00;93673.91;5114277;28;1906;-58
2023/12/22 03:09:52;;;;;;;;;;;;;;;0.31;100.00;93673.66;5113815;28;1038;-58
2023/12/22 03:12:18;;;;;;;;;;;;;;;0.41;99.97;93660.53;5114314;28;1011;-59
2023/12/22 03:14:44;;;;;;;;;;;;;;;0.34;100.00;93655.00;5113272;28;992;-58
2023/12/22 03:17:10;;;;;;;;;;;;;;;0.50;99.88;93653.63;5114519;28;977;-59
2023/12/22 03:19:36;;;;;;;;;;;;;;;0.70;98.59;93646.56;5114321;28;977;-58
2023/12/22 03:22:03;;;;;;;;;;;;;;;0.70;97.96;93652.69;5114500;28;1033;-58
2023/12/22 03:24:29;;;;;;;;;;;;;;;0.66;98.67;93658.34;5114735;28;1049;-59
2023/12/22 03:26:55;;;;;;;;;;;;;;;0.49;99.45;93660.66;5113941;28;1032;-59
2023/12/22 03:29:21;;;;;;;;;;;;;;;0.34;99.85;93659.41;5112742;28;1905;-59
2023/12/22 03:31:47;;;;;;;;;;;;;;;0.22;100.00;93669.22;5114154;28;1054;-58
2023/12/22 03:34:13;;;;;;;;;;;;;;;0.27;100.00;93666.19;5113901;28;972;-59
2023/12/22 03:36:39;;;;;;;;;;;;;;;0.35;100.00;93658.44;5114090;28;961;-59
2023/12/22 03:39:05;;;;;;;;;;;;;;;0.46;100.00;93666.22;5113772;28;1092;-59
2023/12/22 03:41:31;;;;;;;;;;;;;;;0.36;100.00;93652.22;5114044;28;1053;-59
2023/12/22 03:43:57;;;;;;;;;;;;;;;0.28;100.00;93652.06;5114002;28;1055;-58
2023/12/22 03:46:23;;;;;;;;;;;;;;;0.22;100.00;93639.47;5113880;28;1037;-59
2023/12/22 03:48:50;;;;;;;;;;;;;;;0.19;100.00;93646.66;5113445;28;1987;-59
2023/12/22 03:51:16;;;;;;;;;;;;;;;0.36;100.00;93650.44;5113680;28;1025;-59
2023/12/22 03:53:42;;;;;;;;;;;;;;;0.28;100.00;93641.53;5132308;27;1294;-59
2023/12/22 03:56:08;;;;;;;;;;;;;;;0.35;100.00;93640.88;5134534;27;1036;-57
2023/12/22 03:58:38;;;;;;;;;;;;;;;0.43;100.00;93640.19;5134461;27;965;-58
2023/12/22 04:01:04;;;;;;;;;;;;;;;0.26;100.00;93644.31;5134397;27;1023;-57
2023/12/22 04:03:30;;;;;;;;;;;;;;;0.18;100.00;93637.09;5126880;27;1168;-57
2023/12/22 04:05:56;;;;;;;;;;;;;;;0.17;100.00;93648.59;5113738;28;1031;-59
2023/12/22 04:08:22;;;;;;;;;;;;;;;0.24;100.00;93642.78;5113698;28;1917;-62
2023/12/22 04:10:48;;;;;;;;;;;;;;;0.13;100.00;93641.09;5113443;28;1064;-60
2023/12/22 04:13:14;;;;;;;;;;;;;;;0.05;100.00;93647.03;5113738;28;1051;-59
2023/12/22 04:15:40;;;;;;;;;;;;;;;-0.01;100.00;93642.31;5113421;28;1044;-59
2023/12/22 04:18:06;;;;;;;;;;;;;;;0.26;100.00;93648.75;5113643;28;972;-57
2023/12/22 04:20:32;;;;;;;;;;;;;;;0.11;100.00;93657.00;5115410;28;1052;-58
2023/12/22 04:22:58;;;;;;;;;;;;;;;0.06;100.00;93650.47;5117504;28;1087;-58
2023/12/22 04:25:25;;;;;;;;;;;;;;;0.21;100.00;93657.03;5117477;28;1088;-58
2023/12/22 04:27:51;;;;;;;;;;;;;;;0.28;100.00;93638.91;5121497;27;1984;-58
2023/12/22 04:30:17;;;;;;;;;;;;;;;0.44;100.00;93646.25;5126596;27;1356;-58
2023/12/22 04:32:43;;;;;;;;;;;;;;;0.50;99.58;93630.78;5128164;27;1423;-58
2023/12/22 04:35:09;;;;;;;;;;;;;;;0.52;99.83;93636.72;5126788;27;1231;-57
2023/12/22 04:37:35;;;;;;;;;;;;;;;0.72;99.77;93656.00;5126630;27;1314;-57
2023/12/22 04:40:01;;;;;;;;;;;;;;;0.87;98.50;93640.59;5128603;27;1275;-58
2023/12/22 04:42:28;;;;;;;;;;;;;;;0.70;99.08;93646.56;5126745;27;1314;-57
2023/12/22 04:44:54;;;;;;;;;;;;;;;0.66;100.00;93638.09;5126899;27;1279;-58
2023/12/22 04:47:20;;;;;;;;;;;;;;;0.65;100.00;93633.00;5127710;27;1979;-58
2023/12/22 04:49:46;;;;;;;;;;;;;;;0.74;100.00;93632.16;5126233;27;1274;-60
2023/12/22 04:52:12;;;;;;;;;;;;;;;0.64;100.00;93636.59;5127083;27;1216;-58
2023/12/22 04:54:38;;;;;;;;;;;;;;;0.68;100.00;93632.72;5127890;27;1290;-58
2023/12/22 04:57:04;;;;;;;;;;;;;;;0.73;100.00;93631.34;5125650;27;1798;-57
2023/12/22 04:59:30;;;;;;;;;;;;;;;0.83;100.00;93631.31;5126989;27;1220;-57
2023/12/22 05:01:56;;;;;;;;;;;;;;;0.96;100.00;93641.56;5127182;27;1302;-58
2023/12/22 05:04:22;;;;;;;;;;;;;;;0.78;100.00;93641.47;5128209;27;1258;-58
2023/12/22 05:06:49;;;;;;;;;;;;;;;0.57;100.00;93646.84;5126356;27;1302;-57
2023/12/22 05:09:16;;;;;;;;;;;;;;;0.61;100.00;93647.38;5126249;27;1918;-58
2023/12/22 05:11:42;;;;;;;;;;;;;;;0.72;100.00;93649.88;5127906;27;1282;-58
2023/12/22 05:14:09;;;;;;;;;;;;;;;0.54;100.00;93642.69;5125975;27;1271;-58
2023/12/22 05:16:35;;;;;;;;;;;;;;;0.48;100.00;93653.75;5126044;27;1231;-57
2023/12/22 05:19:01;;;;;;;;;;;;;;;0.50;100.00;93649.19;5127702;27;1262;-58
2023/12/22 05:21:27;;;;;;;;;;;;;;;0.34;100.00;93638.38;5125381;27;1240;-58
2023/12/22 05:23:54;;;;;;;;;;;;;;;0.41;100.00;93642.13;5126372;27;1385;-58
2023/12/22 05:26:20;;;;;;;;;;;;;;;0.47;100.00;93646.81;5127202;27;1295;-58
2023/12/22 05:28:47;;;;;;;;;;;;;;;0.48;100.00;93630.09;5125512;27;1901;-58
2023/12/22 05:31:13;;;;;;;;;;;;;;;0.44;100.00;93630.50;5125749;27;1243;-57
2023/12/22 05:33:39;;;;;;;;;;;;;;;0.42;100.00;93637.69;5126649;27;1236;-57
2023/12/22 05:36:05;;;;;;;;;;;;;;;0.50;100.00;93635.22;5125257;27;1362;-58
2023/12/22 05:38:31;;;;;;;;;;;;;;;0.56;100.00;93632.03;5126600;27;1282;-58
2023/12/22 05:40:57;;;;;;;;;;;;;;;0.49;100.00;93631.75;5126844;27;1227;-58
2023/12/22 05:43:23;;;;;;;;;;;;;;;0.45;100.00;93632.16;5124712;27;1223;-58
2023/12/22 05:45:49;;;;;;;;;;;;;;;0.46;100.00;93624.13;5121242;27;1289;-58
2023/12/22 05:48:15;;;;;;;;;;;;;;;0.67;100.00;93636.34;5115535;28;1937;-59
2023/12/22 05:50:41;;;;;;;;;;;;;;;0.83;100.00;93626.06;5116032;28;980;-58
2023/12/22 05:53:07;;;;;;;;;;;;;;;0.77;100.00;93629.25;5115960;28;1023;-58
2023/12/22 05:55:33;;;;;;;;;;;;;;;0.74;100.00;93633.00;5116000;28;1051;-59
2023/12/22 05:57:59;;;;;;;;;;;;;;;0.60;100.00;93619.44;5115653;28;1037;-59
2023/12/22 06:00:26;;;;;;;;;;;;;;;0.56;100.00;93629.41;5115850;28;1063;-59
2023/12/22 06:02:52;;;;;;;;;;;;;;;0.66;100.00;93634.66;5117085;27;1212;-58
2023/12/22 06:05:18;;;;;;;;;;;;;;;0.67;100.00;93634.53;5135962;27;1032;-58
2023/12/22 06:07:44;;;;;;;;;;;;;;;0.52;100.00;93644.63;5136285;27;1901;-58
2023/12/22 06:10:09;;;;;;;;;;;;;;;0.63;100.00;93634.94;5136177;27;1051;-59
2023/12/22 06:12:36;;;;;;;;;;;;;;;0.67;100.00;93634.53;5136535;27;1053;-59
2023/12/22 06:15:02;;;;;;;;;;;;;;;0.54;100.00;93637.41;5136242;27;1038;-58
2023/12/22 06:17:28;;;;;;;;;;;;;;;0.66;100.00;93639.91;5135783;27;1028;-59
2023/12/22 06:19:54;;;;;;;;;;;;;;;0.93;100.00;93633.94;5136046;27;1178;-59
2023/12/22 06:22:21;;;;;;;;;;;;;;;0.83;100.00;93630.50;5136020;27;1131;-59
2023/12/22 06:24:47;;;;;;;;;;;;;;;0.71;100.00;93629.81;5135935;27;1036;-59
2023/12/22 06:27:13;;;;;;;;;;;;;;;0.74;100.00;93630.38;5135546;27;1910;-59
2023/12/22 06:29:39;;;;;;;;;;;;;;;0.81;100.00;93637.72;5135803;27;952;-59
2023/12/22 06:32:06;;;;;;;;;;;;;;;0.98;100.00;93634.38;5135519;27;1083;-59
2023/12/22 06:34:32;;;;;;;;;;;;;;;0.86;100.00;93644.22;5135846;27;999;-59
2023/12/22 06:36:57;;;;;;;;;;;;;;;0.87;100.00;93645.03;5135839;27;976;-58
2023/12/22 06:39:23;;;;;;;;;;;;;;;1.00;100.00;93658.75;5135699;27;993;-58
2023/12/22 06:41:50;;;;;;;;;;;;;;;1.11;100.00;93653.31;5135592;27;984;-58
2023/12/22 06:44:16;;;;;;;;;;;;;;;1.26;100.00;93659.00;5135375;27;1055;-59
2023/12/22 06:46:42;;;;;;;;;;;;;;;1.29;100.00;93647.34;5135144;27;1115;-59
2023/12/22 06:49:08;;;;;;;;;;;;;;;1.34;100.00;93650.38;5135514;27;1992;-59
2023/12/22 06:51:35;;;;;;;;;;;;;;;1.39;100.00;93649.97;5135198;27;1637;-59
2023/12/22 06:54:01;;;;;;;;;;;;;;;1.53;99.81;93638.97;5135245;27;1055;-58
2023/12/22 06:56:29;;;;;;;;;;;;;;;1.60;99.47;93640.06;5135220;27;952;-58
2023/12/22 06:58:57;;;;;;;;;;;;;;;1.57;99.70;93640.34;5135185;27;1014;-58
2023/12/22 07:01:27;;;;;;;;;;;;;;;1.55;100.00;93653.63;5135259;27;965;-58
2023/12/22 07:03:53;;;;;;;;;;;;;;;1.57;100.00;93656.13;5125016;27;1164;-58
2023/12/22 07:06:20;;;;;;;;;;;;;;;1.63;100.00;93658.22;5114489;28;1067;-58
2023/12/22 07:08:56;;;;;;;;;;;;;;;1.71;100.00;93650.41;5114467;28;1985;-58
2023/12/22 07:11:22;;;;;;;;;;;;;;;1.61;100.00;93654.88;5114303;28;1119;-58
2023/12/22 07:13:48;;;;;;;;;;;;;;;1.72;100.00;93656.50;5114167;28;1095;-58
2023/12/22 07:16:14;;;;;;;;;;;;;;;1.85;99.94;93657.00;5114153;28;1112;-59
2023/12/22 07:18:40;;;;;;;;;;;;;;;1.74;100.00;93659.81;5114392;28;973;-58
2023/12/22 07:21:07;;;;;;;;;;;;;;;1.81;100.00;93668.81;5114310;28;1217;-58
2023/12/22 07:23:33;;;;;;;;;;;;;;;1.71;100.00;93666.22;5114106;28;1091;-59
2023/12/22 07:25:59;;;;;;;;;;;;;;;1.79;100.00;93669.94;5112452;28;1040;-58
2023/12/22 07:28:25;;;;;;;;;;;;;;;1.86;100.00;93676.28;5114156;28;1905;-58
2023/12/22 07:30:52;;;;;;;;;;;;;;;1.84;100.00;93672.97;5114332;27;1029;-57
2023/12/22 07:33:18;;;;;;;;;;;;;;;1.83;100.00;93666.88;5121093;27;1139;-58
2023/12/22 07:35:44;;;;;;;;;;;;;;;1.63;100.00;93679.28;5134604;27;1098;-58
2023/12/22 07:38:10;;;;;;;;;;;;;;;1.72;100.00;93681.03;5134540;27;1007;-57
2023/12/22 07:40:37;;;;;;;;;;;;;;;1.82;100.00;93685.44;5133287;27;1088;-57
2023/12/22 07:43:03;;;;;;;;;;;;;;;1.70;100.00;93676.91;5134395;27;1098;-58
2023/12/22 07:45:29;;;;;;;;;;;;;;;1.89;100.00;93681.28;5134591;27;1048;-58
2023/12/22 07:47:55;;;;;;;;;;;;;;;2.08;100.00;93678.56;5134105;27;1922;-57
2023/12/22 07:50:21;;;;;;;;;;;;;;;2.01;100.00;93679.28;5134402;27;1039;-56
2023/12/22 07:52:47;;;;;;;;;;;;;;;2.05;100.00;93681.50;5134734;27;1048;-56
2023/12/22 07:55:14;;;;;;;;;;;;;;;1.87;100.00;93684.06;5133764;27;979;-56
2023/12/22 07:57:40;;;;;;;;;;;;;;;1.94;100.00;93689.59;5134179;27;1059;-56
2023/12/22 08:00:09;;;;;;;;;;;;;;;2.04;100.00;93686.91;5134200;27;1082;-56
2023/12/22 08:02:35;;;;;;;;;;;;;;;2.07;99.79;93695.34;5134079;27;1055;-56
2023/12/22 08:05:00;;;;;;;;;;;;;;;2.12;100.00;93695.72;5114415;27;1176;-56
2023/12/22 08:07:26;;;;;;;;;;;;;;;2.00;100.00;93698.72;5113644;28;1918;-56
2023/12/22 08:09:52;;;;;;;;;;;;;;;2.00;100.00;93701.34;5113636;28;1076;-56
2023/12/22 08:12:19;;;;;;;;;;;;;;;2.08;100.00;93701.47;5113416;28;1068;-57
2023/12/22 08:14:45;;;;;;;;;;;;;;;2.02;100.00;93689.69;5113603;28;1131;-57
2023/12/22 08:17:13;;;;;;;;;;;;;;;2.02;100.00;93702.88;5113392;28;1044;-56
2023/12/22 08:19:42;;;;;;;;;;;;;;;2.19;100.00;93709.19;5113811;28;1033;-56
2023/12/22 08:22:09;;;;;;;;;;;;;;;2.23;100.00;93712.34;5113423;28;1032;-56
2023/12/22 08:24:35;;;;;;;;;;;;;;;2.41;99.12;93715.88;5113428;28;1052;-56
2023/12/22 08:27:01;;;;;;;;;;;;;;;2.38;98.69;93708.25;5113686;28;969;-57
2023/12/22 08:29:27;;;;;;;;;;;;;;;2.48;98.66;93703.75;5113268;28;1985;-57
2023/12/22 08:31:54;;;;;;;;;;;;;;;2.42;98.90;93706.97;5113566;28;973;-57
2023/12/22 08:34:20;;;;;;;;;;;;;;;2.38;99.05;93704.78;5113427;28;1099;-57
2023/12/22 08:36:46;;;;;;;;;;;;;;;2.33;99.83;93703.44;5113352;28;1052;-56
2023/12/22 08:39:12;;;;;;;;;;;;;;;2.43;99.53;93690.19;5113192;28;1036;-57
2023/12/22 08:41:38;;;;;;;;;;;;;;;2.47;99.65;93701.28;5113295;28;1055;-57
2023/12/22 08:44:05;;;;;;;;;;;;;;;2.32;99.59;93699.13;5112282;28;986;-55
2023/12/22 08:46:31;;;;;;;;;;;;;;;2.09;100.00;93696.03;5113197;28;1080;-57
2023/12/22 08:48:59;;;;;;;;;;;;;;;2.18;100.00;93696.13;5113835;28;1979;-57
2023/12/22 08:51:26;;;;;;;;;;;;;;;2.40;100.00;93703.66;5113453;28;1055;-57
2023/12/22 08:53:54;;;;;;;;;;;;;;;2.32;100.00;93698.31;5113267;28;1020;-56
2023/12/22 08:56:23;;;;;;;;;;;;;;;2.36;100.00;93702.31;5113060;28;1040;-57
2023/12/22 08:58:51;;;;;;;;;;;;;;;2.43;100.00;93699.88;5113243;28;1044;-57
2023/12/22 09:01:18;;;;;;;;;;;;;;;2.54;100.00;93692.63;5113422;28;988;-57
2023/12/22 09:03:47;;;;;;;;;;;;;;;2.66;100.00;93697.69;5121972;28;1213;-56
2023/12/22 09:06:16;;;;;;;;;;;;;;;2.76;100.00;93705.53;5133882;27;965;-58
2023/12/22 09:08:42;;;;;;;;;;;;;;;2.72;100.00;93689.19;5137057;27;1902;-58
2023/12/22 09:11:09;;;;;;;;;;;;;;;2.77;100.00;93692.22;5137570;27;1052;-59
2023/12/22 09:13:35;;;;;;;;;;;;;;;2.74;100.00;93695.94;5137214;27;1036;-58
2023/12/22 09:16:04;;;;;;;;;;;;;;;2.87;99.99;93697.41;5137495;27;1022;-59
2023/12/22 09:18:31;;;;;;;;;;;;;;;2.95;99.64;93696.66;5137116;27;1036;-58
2023/12/22 09:20:57;;;;;;;;;;;;;;;2.91;100.00;93706.69;5137095;27;1019;-59
2023/12/22 09:23:24;;;;;;;;;;;;;;;3.00;99.99;93707.56;5136949;27;965;-59
2023/12/22 09:25:50;;;;;;;;;;;;;;;3.02;100.00;93708.28;5137353;27;1079;-59
2023/12/22 09:28:16;;;;;;;;;;;;;;;3.07;99.02;93703.34;5137143;27;1905;-59
2023/12/22 09:30:42;;;;;;;;;;;;;;;2.90;99.36;93703.22;5136988;27;1036;-58
2023/12/22 09:33:12;;;;;;;;;;;;;;;2.87;100.00;93705.34;5136931;27;1043;-59
2023/12/22 09:35:41;;;;;;;;;;;;;;;3.08;99.38;93694.47;5136856;27;912;-59
2023/12/22 09:38:11;;;;;;;;;;;;;;;3.22;98.24;93695.75;5136764;27;1020;-59
2023/12/22 09:40:38;;;;;;;;;;;;;;;3.24;98.19;93693.78;5137087;27;1075;-59
2023/12/22 09:43:05;;;;;;;;;;;;;;;3.24;98.57;93694.59;5136663;27;1016;-59
2023/12/22 09:45:33;;;;;;;;;;;;;;;3.37;98.20;93699.50;5136597;27;1079;-58
2023/12/22 09:47:59;;;;;;;;;;;;;;;3.53;96.69;93682.94;5136429;27;1914;-59
2023/12/22 09:50:26;;;;;;;;;;;;;;;3.56;96.51;93681.81;5136467;27;1031;-59
2023/12/22 09:52:52;;;;;;;;;;;;;;;3.69;96.06;93688.31;5136509;27;972;-58
2023/12/22 09:55:21;;;;;;;;;;;;;;;3.67;96.82;93686.84;5136361;27;1044;-59
2023/12/22 09:57:47;;;;;;;;;;;;;;;3.61;96.86;93684.81;5136697;27;1117;-59
2023/12/22 10:00:14;;;;;;;;;;;;;;;3.72;96.34;93688.03;5136340;27;1114;-58
2023/12/22 10:02:42;;;;;;;;;;;;;;;3.81;96.83;93688.91;5136478;27;992;-59
2023/12/22 10:05:10;;;;;;;;;;;;;;;3.82;96.87;93682.63;5115708;28;1040;-59
2023/12/22 10:07:36;;;;;;;;;;;;;;;3.87;96.34;93683.00;5115836;28;1985;-59
2023/12/22 10:10:03;;;;;;;;;;;;;;;3.84;97.72;93674.56;5115590;28;909;-59
2023/12/22 10:12:30;;;;;;;;;;;;;;;3.75;98.63;93659.63;5115460;28;1103;-59
2023/12/22 10:14:56;;;;;;;;;;;;;;;3.89;99.11;93659.06;5115776;28;1129;-59
2023/12/22 10:17:22;;;;;;;;;;;;;;;3.99;100.00;93664.22;5115112;27;1034;-59
2023/12/22 10:19:48;;;;;;;;;;;;;;;4.06;99.78;93663.44;5115395;28;1115;-59
2023/12/22 10:22:14;;;;;;;;;;;;;;;4.06;99.78;93671.38;5115563;28;1040;-59
2023/12/22 10:24:46;;;;;;;;;;;;;;;4.06;98.13;93673.16;5115706;28;1242;-59
2023/12/22 10:27:13;;;;;;;;;;;;;;;4.15;97.89;93666.09;5115189;28;1029;-58
2023/12/22 10:29:39;;;;;;;;;;;;;;;4.19;97.77;93667.44;5115210;28;1079;-58
2023/12/22 10:32:06;;;;;;;;;;;;;;;4.21;97.97;93662.81;5115323;28;1027;-59
2023/12/22 10:34:32;;;;;;;;;;;;;;;4.09;98.21;93667.56;5115301;28;978;-59
2023/12/22 10:37:01;;;;;;;;;;;;;;;4.14;98.48;93659.19;5115393;28;987;-58
2023/12/22 10:39:31;;;;;;;;;;;;;;;3.93;99.92;93657.75;5114972;28;1056;-60
2023/12/22 10:41:57;;;;;;;;;;;;;;;3.77;100.00;93662.94;5115043;28;1078;-59
2023/12/22 10:44:45;;;;;;;;;;;;;;;3.66;100.00;93664.88;5115098;28;1053;-59
2023/12/22 10:47:11;;;;;;;;;;;;;;;3.90;100.00;93660.69;5114873;27;1222;-59
2023/12/22 10:49:37;;;;;;;;;;;;;;;3.81;100.00;93666.94;5114800;28;1905;-59
2023/12/22 10:52:03;;;;;;;;;;;;;;;3.75;100.00;93670.19;5113759;28;1072;-58
2023/12/22 10:54:29;;;;;;;;;;;;;;;3.84;100.00;93670.09;5114981;28;1055;-58
2023/12/22 10:57:02;;;;;;;;;;;;;;;3.72;100.00;93682.75;5114914;28;1051;-58
2023/12/22 10:59:29;;;;;;;;;;;;;;;3.70;100.00;93668.84;5114561;28;991;-57
2023/12/22 11:01:57;;;;;;;;;;;;;;;3.74;100.00;93671.16;5114945;28;1000;-58
2023/12/22 11:04:26;;;;;;;;;;;;;;;3.82;100.00;93677.34;5129155;27;1200;-58
2023/12/22 11:06:56;;;;;;;;;;;;;;;3.88;100.00;93683.81;5135272;27;1040;-58
2023/12/22 11:09:24;;;;;;;;;;;;;;;3.81;100.00;93667.75;5135596;27;1921;-58
2023/12/22 11:11:51;;;;;;;;;;;;;;;3.78;100.00;93672.53;5134954;27;1008;-58
2023/12/22 11:14:17;;;;;;;;;;;;;;;3.80;100.00;93667.94;5134920;27;1047;-58
2023/12/22 11:16:48;;;;;;;;;;;;;;;3.65;100.00;93647.34;5135055;27;1052;-58
2023/12/22 11:19:14;;;;;;;;;;;;;;;3.66;100.00;93630.50;5135073;27;990;-58
2023/12/22 11:21:40;;;;;;;;;;;;;;;3.70;100.00;93600.13;5134845;27;1036;-57
2023/12/22 11:24:07;;;;;;;;;;;;;;;3.90;100.00;93607.81;5134905;27;999;-58
2023/12/22 11:26:33;;;;;;;;;;;;;;;3.98;100.00;93597.25;5133861;27;1042;-59
2023/12/22 11:28:59;;;;;;;;;;;;;;;4.18;100.00;93602.31;5134313;27;1909;-58
2023/12/22 11:31:27;;;;;;;;;;;;;;;4.37;100.00;93591.47;5134462;27;1030;-58
2023/12/22 11:33:54;;;;;;;;;;;;;;;4.42;100.00;93591.81;5133782;27;999;-58
2023/12/22 11:36:20;;;;;;;;;;;;;;;4.55;100.00;93582.56;5134559;27;1091;-58
2023/12/22 11:38:47;;;;;;;;;;;;;;;4.53;100.00;93585.34;5134501;27;1021;-57
2023/12/22 11:41:15;;;;;;;;;;;;;;;4.74;100.00;93603.41;5134847;27;1076;-58
2023/12/22 11:43:42;;;;;;;;;;;;;;;4.66;100.00;93608.72;5134421;27;1012;-57
2023/12/22 11:46:08;;;;;;;;;;;;;;;4.66;100.00;93611.38;5134573;27;1005;-59
2023/12/22 11:48:34;;;;;;;;;;;;;;;4.56;100.00;93608.88;5134081;27;1984;-58
2023/12/22 11:51:02;;;;;;;;;;;;;;;4.24;100.00;93613.06;5134438;27;1055;-59
2023/12/22 11:53:34;;;;;;;;;;;;;;;3.81;100.00;93591.06;5134549;27;993;-58
2023/12/22 11:56:00;;;;;;;;;;;;;;;3.89;100.00;93614.09;5133019;27;1103;-59
2023/12/22 11:58:53;;;;;;;;;;;;;;;4.03;100.00;93621.44;5134450;27;968;-58
2023/12/22 12:01:20;;;;;;;;;;;;;;;3.96;100.00;93635.44;5131807;27;1213;-59
2023/12/22 12:03:53;;;;;;;;;;;;;;;3.91;100.00;93638.56;5124968;27;1886;-59
2023/12/22 12:06:25;;;;;;;;;;;;;;;3.49;100.00;93644.59;5113747;28;1040;-59
2023/12/22 12:08:53;;;;;;;;;;;;;;;3.51;100.00;93650.56;5113440;28;1909;-59
2023/12/22 12:11:19;;;;;;;;;;;;;;;3.61;100.00;93650.47;5113437;28;1180;-58
2023/12/22 12:13:46;;;;;;;;;;;;;;;3.60;100.00;93672.56;5113737;28;1003;-59
2023/12/22 12:16:13;;;;;;;;;;;;;;;3.74;100.00;93679.09;5113745;28;969;-59
2023/12/22 12:18:39;;;;;;;;;;;;;;;3.93;100.00;93684.19;5112384;28;1015;-59
2023/12/22 12:21:08;;;;;;;;;;;;;;;4.02;100.00;93685.91;5113490;28;1044;-59
2023/12/22 12:23:34;;;;;;;;;;;;;;;3.82;100.00;93690.56;5113705;28;1031;-59
2023/12/22 12:26:00;;;;;;;;;;;;;;;3.81;100.00;93688.91;5113846;28;1048;-59
2023/12/22 12:28:28;;;;;;;;;;;;;;;3.87;100.00;93685.66;5113578;28;1917;-59
2023/12/22 12:31:03;;;;;;;;;;;;;;;3.97;100.00;93703.22;5113599;28;1048;-59
2023/12/22 12:33:29;;;;;;;;;;;;;;;3.96;100.00;93688.31;5113319;28;1036;-58
2023/12/22 12:35:57;;;;;;;;;;;;;;;3.92;100.00;93709.78;5113374;28;1051;-59
2023/12/22 12:38:37;;;;;;;;;;;;;;;3.97;100.00;93706.69;5113525;28;1043;-58
2023/12/22 12:41:03;;;;;;;;;;;;;;;3.76;100.00;93715.00;5114584;28;969;-58
2023/12/22 12:43:29;;;;;;;;;;;;;;;3.83;100.00;93699.31;5117379;28;1006;-58
2023/12/22 12:46:02;;;;;;;;;;;;;;;3.94;100.00;93688.47;5117357;28;1055;-59
2023/12/22 12:48:28;;;;;;;;;;;;;;;3.98;100.00;93676.59;5116984;28;1990;-58
2023/12/22 12:50:54;;;;;;;;;;;;;;;4.10;100.00;93664.78;5117375;28;1019;-59
2023/12/22 12:53:20;;;;;;;;;;;;;;;4.11;100.00;93655.84;5117259;28;1036;-58
2023/12/22 12:55:46;;;;;;;;;;;;;;;4.29;100.00;93658.41;5134505;27;1028;-59
2023/12/22 12:58:12;;;;;;;;;;;;;;;4.07;100.00;93654.50;5137816;27;964;-59